BRX7455 ENVA-ESNN
Flight info
| Callsign | BRX7455 |
|---|---|
| Flight time | 0h 43m |
| Altitude | 23000 |
| Route | SOLKA DCT DIBVA DCT DEGED |
| Aircraft | DH8D/M-SDE2E3FGRY/H |
Departure
| Time | 2026-05-04 00:44 |
|---|---|
| Airport | Trondheim Airport, Værnes (ENVA) |
Arrival
| Time | 2026-05-04 01:28 |
|---|---|
| Airport | Sundsvall-Härnösand Airport (ESNN) |
| Time | Latitude | Longitude | Altitude | Speed | Heading |
|---|---|---|---|---|---|
| 2026-05-04 00:14 | 63.45418 | 10.91269 | 0 ft | 0 kts | 90° |
| 2026-05-04 00:23 | 63.45419 | 10.91269 | 0 ft | 0 kts | 90° |
| 2026-05-04 00:24 | 63.45418 | 10.91269 | 0 ft | 0 kts | 90° |
| 2026-05-04 00:24 | 63.45419 | 10.91269 | 0 ft | 0 kts | 90° |
| 2026-05-04 00:24 | 63.45418 | 10.91269 | 0 ft | 0 kts | 90° |
| 2026-05-04 00:25 | 63.45419 | 10.91269 | 0 ft | 0 kts | 90° |
| 2026-05-04 00:25 | 63.45418 | 10.91269 | 0 ft | 0 kts | 90° |
| 2026-05-04 00:25 | 63.45419 | 10.91269 | 0 ft | 0 kts | 90° |
| 2026-05-04 00:31 | 63.45419 | 10.91270 | 0 ft | 0 kts | 90° |
| 2026-05-04 00:31 | 63.45419 | 10.91262 | 0 ft | 2 kts | 90° |
| 2026-05-04 00:31 | 63.45419 | 10.91230 | 0 ft | 2 kts | 90° |
| 2026-05-04 00:31 | 63.45419 | 10.91208 | 0 ft | 2 kts | 86° |
| 2026-05-04 00:32 | 63.45414 | 10.91177 | 0 ft | 2 kts | 57° |
| 2026-05-04 00:32 | 63.45404 | 10.91153 | 0 ft | 2 kts | 30° |
| 2026-05-04 00:32 | 63.45390 | 10.91143 | 0 ft | 1 kts | 5° |
| 2026-05-04 00:32 | 63.45387 | 10.91143 | 0 ft | 0 kts | 2° |
| 2026-05-04 00:37 | 63.45388 | 10.91143 | 0 ft | 0 kts | 2° |
| 2026-05-04 00:37 | 63.45413 | 10.91144 | 0 ft | 6 kts | 1° |
| 2026-05-04 00:38 | 63.45470 | 10.91145 | 0 ft | 9 kts | 360° |
| 2026-05-04 00:38 | 63.45545 | 10.91145 | 0 ft | 9 kts | 1° |
| 2026-05-04 00:38 | 63.45590 | 10.91132 | 0 ft | 6 kts | 319° |
| 2026-05-04 00:38 | 63.45598 | 10.91032 | 0 ft | 6 kts | 270° |
| 2026-05-04 00:39 | 63.45599 | 10.90912 | -2 ft | 8 kts | 270° |
| 2026-05-04 00:39 | 63.45599 | 10.90768 | -3 ft | 9 kts | 270° |
| 2026-05-04 00:39 | 63.45599 | 10.90618 | -3 ft | 10 kts | 270° |
| 2026-05-04 00:39 | 63.45599 | 10.90421 | -3 ft | 14 kts | 269° |
| 2026-05-04 00:40 | 63.45599 | 10.90171 | -3 ft | 17 kts | 270° |
| 2026-05-04 00:40 | 63.45600 | 10.89887 | -3 ft | 18 kts | 271° |
| 2026-05-04 00:40 | 63.45601 | 10.89637 | -3 ft | 13 kts | 272° |
| 2026-05-04 00:40 | 63.45643 | 10.89473 | -3 ft | 12 kts | 310° |
| 2026-05-04 00:41 | 63.45664 | 10.89416 | -2 ft | 0 kts | 308° |
| 2026-05-04 00:42 | 63.45667 | 10.89407 | -2 ft | 3 kts | 308° |
| 2026-05-04 00:43 | 63.45704 | 10.89303 | -2 ft | 10 kts | 312° |
| 2026-05-04 00:43 | 63.45763 | 10.89321 | -2 ft | 10 kts | 75° |
| 2026-05-04 00:43 | 63.45764 | 10.89356 | -2 ft | 0 kts | 90° |
| 2026-05-04 00:43 | 63.45763 | 10.89765 | -2 ft | 73 kts | 91° |
| 2026-05-04 00:44 | 63.45762 | 10.91571 | 5 ft | 148 kts | 89° |
| 2026-05-04 00:44 | 63.45740 | 10.94004 | 466 ft | 165 kts | 93° |
| 2026-05-04 00:44 | 63.45740 | 10.96610 | 1178 ft | 177 kts | 91° |
| 2026-05-04 00:44 | 63.45747 | 10.99452 | 1806 ft | 195 kts | 89° |
| 2026-05-04 00:45 | 63.45782 | 11.02645 | 2288 ft | 220 kts | 89° |
| 2026-05-04 00:45 | 63.45739 | 11.06296 | 2723 ft | 239 kts | 91° |
| 2026-05-04 00:45 | 63.45696 | 11.09851 | 3707 ft | 233 kts | 90° |
| 2026-05-04 00:45 | 63.45657 | 11.13524 | 4436 ft | 239 kts | 90° |
| 2026-05-04 00:46 | 63.45619 | 11.17219 | 5192 ft | 244 kts | 90° |
| 2026-05-04 00:46 | 63.45587 | 11.21031 | 5794 ft | 256 kts | 90° |
| 2026-05-04 00:46 | 63.45559 | 11.25003 | 6526 ft | 260 kts | 90° |
| 2026-05-04 00:46 | 63.45532 | 11.29099 | 7254 ft | 267 kts | 89° |
| 2026-05-04 00:47 | 63.45500 | 11.33241 | 7980 ft | 273 kts | 91° |
| 2026-05-04 00:47 | 63.45143 | 11.37420 | 8636 ft | 281 kts | 110° |
| 2026-05-04 00:47 | 63.44420 | 11.41475 | 9483 ft | 284 kts | 113° |
| 2026-05-04 00:47 | 63.43686 | 11.45530 | 10306 ft | 288 kts | 113° |
| 2026-05-04 00:48 | 63.42923 | 11.49740 | 10987 ft | 299 kts | 114° |
| 2026-05-04 00:48 | 63.42112 | 11.54214 | 11170 ft | 323 kts | 113° |
| 2026-05-04 00:48 | 63.41263 | 11.58931 | 11658 ft | 335 kts | 114° |
| 2026-05-04 00:48 | 63.40411 | 11.63682 | 12346 ft | 337 kts | 114° |
| 2026-05-04 00:49 | 63.39556 | 11.68446 | 13014 ft | 337 kts | 115° |
| 2026-05-04 00:49 | 63.38668 | 11.73387 | 13474 ft | 346 kts | 115° |
| 2026-05-04 00:49 | 63.37785 | 11.78299 | 14033 ft | 352 kts | 115° |
| 2026-05-04 00:49 | 63.36880 | 11.83336 | 14792 ft | 350 kts | 115° |
| 2026-05-04 00:50 | 63.35961 | 11.88430 | 15318 ft | 354 kts | 115° |
| 2026-05-04 00:50 | 63.35032 | 11.93558 | 15658 ft | 365 kts | 115° |
| 2026-05-04 00:50 | 63.34101 | 11.98708 | 16295 ft | 365 kts | 115° |
| 2026-05-04 00:50 | 63.33139 | 12.03956 | 16909 ft | 362 kts | 117° |
| 2026-05-04 00:51 | 63.31969 | 12.08894 | 17567 ft | 356 kts | 127° |
| 2026-05-04 00:51 | 63.30693 | 12.13425 | 18409 ft | 350 kts | 128° |
| 2026-05-04 00:51 | 63.29416 | 12.17976 | 18992 ft | 349 kts | 128° |
| 2026-05-04 00:51 | 63.28112 | 12.22615 | 19382 ft | 355 kts | 128° |
| 2026-05-04 00:52 | 63.26838 | 12.27177 | 20140 ft | 350 kts | 128° |
| 2026-05-04 00:52 | 63.25552 | 12.31764 | 20758 ft | 349 kts | 128° |
| 2026-05-04 00:52 | 63.24287 | 12.36273 | 21355 ft | 347 kts | 129° |
| 2026-05-04 00:52 | 63.23017 | 12.40796 | 21948 ft | 345 kts | 129° |
| 2026-05-04 00:53 | 63.21830 | 12.45003 | 22371 ft | 348 kts | 129° |
| 2026-05-04 00:53 | 63.20526 | 12.49616 | 22753 ft | 353 kts | 129° |
| 2026-05-04 00:53 | 63.19265 | 12.54053 | 22861 ft | 365 kts | 129° |
| 2026-05-04 00:53 | 63.17876 | 12.58924 | 22876 ft | 379 kts | 129° |
| 2026-05-04 00:54 | 63.16472 | 12.63856 | 22865 ft | 386 kts | 128° |
| 2026-05-04 00:54 | 63.15015 | 12.68997 | 22871 ft | 384 kts | 129° |
| 2026-05-04 00:54 | 63.13611 | 12.73946 | 22856 ft | 382 kts | 129° |
| 2026-05-04 00:54 | 63.12207 | 12.78878 | 22846 ft | 380 kts | 129° |
| 2026-05-04 00:55 | 63.10780 | 12.83871 | 22854 ft | 380 kts | 130° |
| 2026-05-04 00:55 | 63.09377 | 12.88764 | 22841 ft | 381 kts | 130° |
| 2026-05-04 00:55 | 63.07965 | 12.93677 | 22823 ft | 381 kts | 129° |
| 2026-05-04 00:55 | 63.06533 | 12.98650 | 22821 ft | 381 kts | 129° |
| 2026-05-04 00:56 | 63.05115 | 13.03561 | 22808 ft | 382 kts | 129° |
| 2026-05-04 00:56 | 63.03706 | 13.08431 | 22803 ft | 382 kts | 129° |
| 2026-05-04 00:56 | 63.02265 | 13.13400 | 22802 ft | 382 kts | 129° |
| 2026-05-04 00:56 | 63.00838 | 13.18310 | 22804 ft | 382 kts | 129° |
| 2026-05-04 00:57 | 62.99417 | 13.23186 | 22811 ft | 381 kts | 129° |
| 2026-05-04 00:57 | 62.97986 | 13.28089 | 22823 ft | 382 kts | 129° |
| 2026-05-04 00:57 | 62.96545 | 13.33005 | 22826 ft | 383 kts | 129° |
| 2026-05-04 00:57 | 62.95096 | 13.37942 | 22829 ft | 384 kts | 129° |
| 2026-05-04 00:58 | 62.93642 | 13.42888 | 22819 ft | 384 kts | 129° |
| 2026-05-04 00:58 | 62.92204 | 13.47769 | 22827 ft | 384 kts | 129° |
| 2026-05-04 00:58 | 62.90755 | 13.52674 | 22823 ft | 385 kts | 129° |
| 2026-05-04 00:58 | 62.89329 | 13.57496 | 22832 ft | 384 kts | 130° |
| 2026-05-04 00:59 | 62.87880 | 13.62381 | 22835 ft | 385 kts | 129° |
| 2026-05-04 00:59 | 62.86423 | 13.67286 | 22835 ft | 385 kts | 130° |
| 2026-05-04 00:59 | 62.84966 | 13.72179 | 22839 ft | 384 kts | 130° |
| 2026-05-04 00:59 | 62.83513 | 13.77050 | 22863 ft | 384 kts | 130° |
| 2026-05-04 01:00 | 62.82039 | 13.81979 | 22864 ft | 384 kts | 130° |
| 2026-05-04 01:00 | 62.80597 | 13.86792 | 22863 ft | 384 kts | 130° |
| 2026-05-04 01:00 | 62.79130 | 13.91676 | 22875 ft | 383 kts | 130° |
| 2026-05-04 01:00 | 62.77665 | 13.96545 | 22875 ft | 384 kts | 130° |
| 2026-05-04 01:01 | 62.76198 | 14.01408 | 22881 ft | 384 kts | 130° |
| 2026-05-04 01:01 | 62.74730 | 14.06263 | 22875 ft | 384 kts | 130° |
| 2026-05-04 01:01 | 62.73263 | 14.11108 | 22875 ft | 384 kts | 130° |
| 2026-05-04 01:01 | 62.71795 | 14.15946 | 22878 ft | 384 kts | 130° |
| 2026-05-04 01:02 | 62.70320 | 14.20793 | 22877 ft | 384 kts | 130° |
| 2026-05-04 01:02 | 62.68848 | 14.25624 | 22885 ft | 384 kts | 131° |
| 2026-05-04 01:02 | 62.67363 | 14.30483 | 22881 ft | 385 kts | 130° |
| 2026-05-04 01:02 | 62.65889 | 14.35299 | 22892 ft | 385 kts | 130° |
| 2026-05-04 01:03 | 62.64414 | 14.40105 | 22888 ft | 385 kts | 130° |
| 2026-05-04 01:03 | 62.62967 | 14.44982 | 22876 ft | 388 kts | 126° |
| 2026-05-04 01:03 | 62.61762 | 14.50260 | 22877 ft | 391 kts | 121° |
| 2026-05-04 01:03 | 62.60632 | 14.55607 | 22907 ft | 391 kts | 121° |
| 2026-05-04 01:04 | 62.59492 | 14.60996 | 22913 ft | 392 kts | 121° |
| 2026-05-04 01:04 | 62.58363 | 14.66308 | 22890 ft | 392 kts | 122° |
| 2026-05-04 01:04 | 62.57223 | 14.71649 | 22899 ft | 391 kts | 122° |
| 2026-05-04 01:04 | 62.56076 | 14.77001 | 22909 ft | 391 kts | 122° |
| 2026-05-04 01:05 | 62.54929 | 14.82333 | 22890 ft | 391 kts | 122° |
| 2026-05-04 01:05 | 62.53769 | 14.87707 | 22890 ft | 391 kts | 122° |
| 2026-05-04 01:05 | 62.52624 | 14.92992 | 22883 ft | 392 kts | 122° |
| 2026-05-04 01:05 | 62.51471 | 14.98300 | 22878 ft | 392 kts | 122° |
| 2026-05-04 01:06 | 62.50316 | 15.03602 | 22864 ft | 392 kts | 122° |
| 2026-05-04 01:06 | 62.49147 | 15.08955 | 22883 ft | 392 kts | 122° |
| 2026-05-04 01:06 | 62.47993 | 15.14221 | 22904 ft | 391 kts | 122° |
| 2026-05-04 01:06 | 62.46835 | 15.19496 | 22901 ft | 391 kts | 122° |
| 2026-05-04 01:07 | 62.45658 | 15.24842 | 22906 ft | 391 kts | 122° |
| 2026-05-04 01:07 | 62.44493 | 15.30119 | 22913 ft | 392 kts | 122° |
| 2026-05-04 01:07 | 62.43323 | 15.35407 | 22903 ft | 392 kts | 122° |
| 2026-05-04 01:07 | 62.42142 | 15.40728 | 22909 ft | 392 kts | 122° |
| 2026-05-04 01:08 | 62.40979 | 15.45956 | 22918 ft | 393 kts | 122° |
| 2026-05-04 01:08 | 62.39797 | 15.51257 | 22924 ft | 392 kts | 122° |
| 2026-05-04 01:08 | 62.38602 | 15.56601 | 22910 ft | 393 kts | 122° |
| 2026-05-04 01:08 | 62.37423 | 15.61861 | 22904 ft | 393 kts | 122° |
| 2026-05-04 01:09 | 62.36232 | 15.67164 | 22900 ft | 393 kts | 123° |
| 2026-05-04 01:09 | 62.35039 | 15.72465 | 22908 ft | 393 kts | 123° |
| 2026-05-04 01:09 | 62.33846 | 15.77748 | 22882 ft | 393 kts | 123° |
| 2026-05-04 01:09 | 62.32659 | 15.82989 | 22888 ft | 393 kts | 123° |
| 2026-05-04 01:10 | 62.31459 | 15.88279 | 22891 ft | 393 kts | 123° |
| 2026-05-04 01:10 | 62.30259 | 15.93551 | 22882 ft | 393 kts | 123° |
| 2026-05-04 01:10 | 62.29073 | 15.98756 | 22897 ft | 393 kts | 123° |
| 2026-05-04 01:10 | 62.27876 | 16.03993 | 22915 ft | 393 kts | 123° |
| 2026-05-04 01:11 | 62.26671 | 16.09248 | 22887 ft | 394 kts | 123° |
| 2026-05-04 01:11 | 62.25465 | 16.14498 | 22876 ft | 393 kts | 123° |
| 2026-05-04 01:11 | 62.24252 | 16.19768 | 22874 ft | 394 kts | 123° |
| 2026-05-04 01:11 | 62.23049 | 16.24977 | 22865 ft | 394 kts | 123° |
| 2026-05-04 01:12 | 62.21828 | 16.30263 | 22865 ft | 391 kts | 123° |
| 2026-05-04 01:12 | 62.20637 | 16.35408 | 22557 ft | 389 kts | 123° |
| 2026-05-04 01:12 | 62.19470 | 16.40479 | 22081 ft | 379 kts | 123° |
| 2026-05-04 01:12 | 62.18310 | 16.45489 | 21596 ft | 374 kts | 123° |
| 2026-05-04 01:13 | 62.17156 | 16.50452 | 21136 ft | 369 kts | 123° |
| 2026-05-04 01:13 | 62.16031 | 16.55274 | 20667 ft | 366 kts | 123° |
| 2026-05-04 01:13 | 62.14885 | 16.60161 | 20186 ft | 365 kts | 123° |
| 2026-05-04 01:13 | 62.13753 | 16.64989 | 19693 ft | 367 kts | 122° |
| 2026-05-04 01:14 | 62.12940 | 16.70176 | 18716 ft | 387 kts | 102° |
| 2026-05-04 01:14 | 62.13096 | 16.75885 | 17739 ft | 389 kts | 76° |
| 2026-05-04 01:14 | 62.14286 | 16.80785 | 17324 ft | 364 kts | 48° |
| 2026-05-04 01:14 | 62.16186 | 16.84004 | 16960 ft | 338 kts | 20° |
| 2026-05-04 01:15 | 62.18360 | 16.85436 | 16606 ft | 321 kts | 5° |
| 2026-05-04 01:15 | 62.20500 | 16.86419 | 16200 ft | 317 kts | 5° |
| 2026-05-04 01:15 | 62.22646 | 16.87385 | 15806 ft | 318 kts | 5° |
| 2026-05-04 01:15 | 62.24826 | 16.88370 | 15391 ft | 318 kts | 5° |
| 2026-05-04 01:16 | 62.26983 | 16.89354 | 14978 ft | 318 kts | 5° |
| 2026-05-04 01:16 | 62.29133 | 16.90341 | 14570 ft | 318 kts | 5° |
| 2026-05-04 01:16 | 62.31276 | 16.91332 | 14165 ft | 317 kts | 6° |
| 2026-05-04 01:16 | 62.33427 | 16.92333 | 13741 ft | 316 kts | 6° |
| 2026-05-04 01:17 | 62.35592 | 16.93341 | 13322 ft | 314 kts | 6° |
| 2026-05-04 01:17 | 62.37705 | 16.94329 | 12903 ft | 309 kts | 6° |
| 2026-05-04 01:17 | 62.39774 | 16.95297 | 12494 ft | 304 kts | 6° |
| 2026-05-04 01:17 | 62.41829 | 16.96260 | 12094 ft | 299 kts | 6° |
| 2026-05-04 01:18 | 62.43842 | 16.97204 | 11699 ft | 295 kts | 6° |
| 2026-05-04 01:18 | 62.45810 | 16.98129 | 11309 ft | 291 kts | 6° |
| 2026-05-04 01:18 | 62.47766 | 16.99050 | 10929 ft | 287 kts | 6° |
| 2026-05-04 01:18 | 62.49702 | 16.99961 | 10543 ft | 283 kts | 6° |
| 2026-05-04 01:19 | 62.51588 | 17.00851 | 10179 ft | 279 kts | 6° |
| 2026-05-04 01:19 | 62.53462 | 17.01735 | 9805 ft | 275 kts | 6° |
| 2026-05-04 01:19 | 62.55311 | 17.02609 | 9445 ft | 272 kts | 7° |
| 2026-05-04 01:19 | 62.57144 | 17.03477 | 9080 ft | 268 kts | 7° |
| 2026-05-04 01:20 | 62.58964 | 17.04340 | 8721 ft | 264 kts | 7° |
| 2026-05-04 01:20 | 62.60740 | 17.05184 | 8369 ft | 261 kts | 7° |
| 2026-05-04 01:20 | 62.62482 | 17.06012 | 8031 ft | 257 kts | 8° |
| 2026-05-04 01:20 | 62.64213 | 17.06837 | 7680 ft | 249 kts | 8° |
| 2026-05-04 01:21 | 62.65839 | 17.07608 | 7353 ft | 235 kts | 8° |
| 2026-05-04 01:21 | 62.67386 | 17.08341 | 7043 ft | 222 kts | 8° |
| 2026-05-04 01:21 | 62.68876 | 17.09046 | 6758 ft | 216 kts | 8° |
| 2026-05-04 01:21 | 62.70322 | 17.09736 | 6467 ft | 212 kts | 9° |
| 2026-05-04 01:22 | 62.71640 | 17.11099 | 6196 ft | 219 kts | 39° |
| 2026-05-04 01:22 | 62.72408 | 17.14028 | 5932 ft | 229 kts | 64° |
| 2026-05-04 01:22 | 62.72954 | 17.17296 | 5612 ft | 232 kts | 66° |
| 2026-05-04 01:22 | 62.73490 | 17.20587 | 5138 ft | 229 kts | 66° |
| 2026-05-04 01:23 | 62.73880 | 17.23927 | 4626 ft | 234 kts | 83° |
| 2026-05-04 01:23 | 62.73464 | 17.27315 | 4126 ft | 241 kts | 118° |
| 2026-05-04 01:23 | 62.72189 | 17.29579 | 3633 ft | 241 kts | 157° |
| 2026-05-04 01:23 | 62.70586 | 17.30588 | 3175 ft | 238 kts | 166° |
| 2026-05-04 01:24 | 62.69065 | 17.31566 | 3001 ft | 217 kts | 162° |
| 2026-05-04 01:24 | 62.67687 | 17.32607 | 2903 ft | 200 kts | 161° |
| 2026-05-04 01:24 | 62.66415 | 17.33588 | 2881 ft | 193 kts | 161° |
| 2026-05-04 01:24 | 62.65159 | 17.34555 | 2768 ft | 186 kts | 161° |
| 2026-05-04 01:25 | 62.63971 | 17.35511 | 2459 ft | 177 kts | 160° |
| 2026-05-04 01:25 | 62.62858 | 17.36412 | 2187 ft | 169 kts | 161° |
| 2026-05-04 01:25 | 62.61785 | 17.37265 | 1907 ft | 160 kts | 161° |
| 2026-05-04 01:25 | 62.60773 | 17.38077 | 1584 ft | 150 kts | 161° |
| 2026-05-04 01:26 | 62.59804 | 17.38886 | 1457 ft | 150 kts | 161° |
| 2026-05-04 01:26 | 62.58848 | 17.39652 | 1235 ft | 145 kts | 162° |
| 2026-05-04 01:26 | 62.57914 | 17.40415 | 1038 ft | 142 kts | 162° |
| 2026-05-04 01:26 | 62.56985 | 17.41147 | 856 ft | 140 kts | 162° |
| 2026-05-04 01:27 | 62.56086 | 17.41846 | 614 ft | 139 kts | 163° |
| 2026-05-04 01:27 | 62.55189 | 17.42547 | 417 ft | 136 kts | 163° |
| 2026-05-04 01:27 | 62.54308 | 17.43218 | 204 ft | 135 kts | 161° |
| 2026-05-04 01:27 | 62.53412 | 17.43925 | 25 ft | 133 kts | 162° |
| 2026-05-04 01:28 | 62.52684 | 17.44491 | 5 ft | 70 kts | 160° |
| 2026-05-04 01:28 | 62.52436 | 17.44685 | 5 ft | 19 kts | 161° |
| 2026-05-04 01:28 | 62.52353 | 17.44774 | 5 ft | 8 kts | 179° |
| 2026-05-04 01:28 | 62.52382 | 17.44715 | 5 ft | 11 kts | 354° |
| 2026-05-04 01:29 | 62.52430 | 17.44628 | 5 ft | 9 kts | 254° |